Home > Products > Valid Products > TAF

000
FTUS44 KSJT 021700
TAFSJT
TAF
KSJT 021740Z 0218/0318 03007KT P6SM OVC005
     FM022100 07005KT P6SM OVC015
     FM030300 12007KT 6SM BR OVC006=



000
FTUS44 KSJT 021700
TAFSJT
TAF
KSJT 021740Z 0218/0318 03007KT P6SM OVC005
     FM022100 07005KT P6SM OVC015
     FM030300 12007KT 6SM BR OVC006=



000
FTUS44 KSJT 021700
TAFABI
TAF
KABI 021740Z 0218/0318 03008KT 2SM BR OVC006
      TEMPO 0218/0222 2SM -FZDZ BR OVC006
     FM022200 03005KT P6SM OVC008
     FM022300 06005KT P6SM OVC012
     FM030300 14009KT 4SM BR OVC004=



000
FTUS44 KSJT 021700
TAFJCT
TAF
KJCT 021740Z 0218/0318 05007KT 4SM BR OVC007
     FM022100 06006KT P6SM OVC012
     FM030300 09004KT 5SM BR OVC007=



000
FTUS44 KSJT 021700
TAFJCT
TAF
KJCT 021740Z 0218/0318 05007KT 4SM BR OVC007
     FM022100 06006KT P6SM OVC012
     FM030300 09004KT 5SM BR OVC007=



000
FTUS44 KSJT 021700
TAFABI
TAF
KABI 021740Z 0218/0318 03008KT 2SM BR OVC006
      TEMPO 0218/0222 2SM -FZDZ BR OVC006
     FM022200 03005KT P6SM OVC008
     FM022300 06005KT P6SM OVC012
     FM030300 14009KT 4SM BR OVC004=



000
FTUS44 KSJT 021700 AAB
TAFJCT
TAF AMD
KJCT 021715Z 0217/0312 05007KT 4SM BR OVC007
     FM022100 06006KT P6SM OVC012
     FM030300 09004KT 5SM BR OVC007=



000
FTUS44 KSJT 021700 AAB
TAFSJT
TAF AMD
KSJT 021714Z 0217/0312 03007KT P6SM OVC005
     FM022100 07005KT P6SM OVC015
     FM030300 12007KT 6SM BR OVC006=



000
FTUS44 KSJT 021700 AAB
TAFABI
TAF AMD
KABI 021711Z 0217/0312 03008KT 2SM BR OVC006
      TEMPO 0217/0220 2SM -FZDZ BR OVC006
     FM022000 03005KT P6SM OVC008
     FM022300 06005KT P6SM OVC012
     FM030300 14009KT 4SM BR OVC004=



000
FTUS44 KSJT 021700 AAB
TAFABI
TAF AMD
KABI 021711Z 0217/0312 03008KT 2SM BR OVC006
      TEMPO 0217/0220 2SM -FZDZ BR OVC006
     FM022000 03005KT P6SM OVC008
     FM022300 06005KT P6SM OVC012
     FM030300 14009KT 4SM BR OVC004=



000
FTUS44 KSJT 021500 AAA
TAFJCT
TAF AMD
KJCT 021522Z 0215/0312 05007KT P6SM -DZ OVC006
     FM021800 05007KT P6SM OVC008
     FM022100 06006KT P6SM OVC012
     FM030300 09004KT 5SM BR OVC007=



000
FTUS44 KSJT 021500 AAA
TAFSJT
TAF AMD
KSJT 021519Z 0215/0312 05007KT 4SM -DZ BR OVC003
     FM021800 05007KT P6SM OVC007
     FM022100 07005KT P6SM OVC015
     FM030300 12007KT 6SM BR OVC006=



000
FTUS44 KSJT 021500 AAA
TAFABI
TAF AMD
KABI 021517Z 0215/0312 03008KT 2SM BR OVC006
      TEMPO 0215/0218 2SM -FZDZ BR OVC004
     FM022000 03005KT P6SM OVC008
     FM022300 06005KT P6SM OVC012
     FM030300 14009KT 4SM BR OVC004=



000
FTUS44 KSJT 021100
TAFSJT
TAF
KSJT 021124Z 0212/0312 03007KT 6SM BR OVC004
      TEMPO 0212/0215 4SM -DZ BR
     FM021800 05006KT P6SM OVC007
     FM022100 07005KT P6SM OVC015
     FM030300 12007KT 6SM BR OVC006=



000
FTUS44 KSJT 021100
TAFSJT
TAF
KSJT 021124Z 0212/0312 03007KT 6SM BR OVC004
      TEMPO 0212/0215 4SM -DZ BR
     FM021800 05006KT P6SM OVC007
     FM022100 07005KT P6SM OVC015
     FM030300 12007KT 6SM BR OVC006=



000
FTUS44 KSJT 021100
TAFABI
TAF
KABI 021124Z 0212/0312 02009KT 3SM BR OVC005
      TEMPO 0212/0215 2SM -FZDZ BR OVC004
     FM021500 02007KT 3SM BR OVC004
     FM022000 03005KT P6SM OVC008
     FM022300 06005KT P6SM OVC012
     FM030300 14009KT 4SM BR OVC004=



000
FTUS44 KSJT 021100
TAFJCT
TAF
KJCT 021124Z 0212/0312 03007KT 4SM -DZ BR OVC006
      TEMPO 0212/0215 2SM -DZ BR OVC005
     FM021800 03006KT 6SM BR OVC007
     FM022100 06005KT P6SM OVC012
     FM030300 09004KT 5SM BR OVC007=



000
FTUS44 KSJT 021100
TAFABI
TAF
KABI 021124Z 0212/0312 02009KT 3SM BR OVC005
      TEMPO 0212/0215 2SM -FZDZ BR OVC004
     FM021500 02007KT 3SM BR OVC004
     FM022000 03005KT P6SM OVC008
     FM022300 06005KT P6SM OVC012
     FM030300 14009KT 4SM BR OVC004=



000
FTUS44 KSJT 021100
TAFJCT
TAF
KJCT 021124Z 0212/0312 03007KT 4SM -DZ BR OVC006
      TEMPO 0212/0215 2SM -DZ BR OVC005
     FM021800 03006KT 6SM BR OVC007
     FM022100 06005KT P6SM OVC012
     FM030300 09004KT 5SM BR OVC007=



000
FTUS44 KSJT 021100 AAC
TAFJCT
TAF AMD
KJCT 021101Z 0211/0306 03007KT 4SM -DZ BR OVC005
      TEMPO 0211/0214 2SM -DZ BR OVC007
     FM021800 03006KT 6SM BR OVC007
     FM022100 06005KT P6SM OVC012
     FM030300 09004KT 5SM BR OVC007=



000
FTUS44 KSJT 021100 AAC
TAFJCT
TAF AMD
KJCT 021101Z 0211/0306 03007KT 4SM -DZ BR OVC005
      TEMPO 0211/0214 2SM -DZ BR OVC007
     FM021800 03006KT 6SM BR OVC007
     FM022100 06005KT P6SM OVC012
     FM030300 09004KT 5SM BR OVC007=



000
FTUS44 KSJT 021000 AAA
TAFABI
TAF AMD
KABI 021052Z 0211/0306 02009KT 3SM -FZDZ BR OVC004
     FM021500 02007KT 3SM BR OVC004
     FM022000 03005KT P6SM OVC008
     FM022300 06005KT P6SM OVC012
     FM030300 14009KT 4SM BR OVC004=



000
FTUS44 KSJT 021000 AAA
TAFSJT
TAF AMD
KSJT 021047Z 0211/0306 03007KT 4SM BR OVC004
      TEMPO 0211/0215 6SM BR
     FM021800 05006KT P6SM OVC007
     FM022100 07005KT P6SM OVC015
     FM030300 12007KT 6SM BR OVC006=



000
FTUS44 KSJT 020800 AAB
TAFJCT
TAF AMD
KJCT 020825Z 0208/0306 03007KT 3SM -DZ BR OVC005
      TEMPO 0208/0212 2SM -DZ BR OVC007
     FM021700 02005KT 6SM BR OVC007
     FM022100 09004KT P6SM BKN012=



000
FTUS44 KSJT 020800 AAB
TAFJCT
TAF AMD
KJCT 020825Z 0208/0306 03007KT 3SM -DZ BR OVC005
      TEMPO 0208/0212 2SM -DZ BR OVC007
     FM021700 02005KT 6SM BR OVC007
     FM022100 09004KT P6SM BKN012=



000
FTUS44 KSJT 020600 AAA
TAFJCT
TAF AMD
KJCT 020640Z 0207/0306 03007KT 2SM -DZ BR OVC007
      TEMPO 0207/0209 OVC005
     FM021700 02005KT 6SM BR OVC007
     FM022100 09004KT P6SM BKN012=



000
FTUS44 KSJT 020600 AAA
TAFJCT
TAF AMD
KJCT 020640Z 0207/0306 03007KT 2SM -DZ BR OVC007
      TEMPO 0207/0209 OVC005
     FM021700 02005KT 6SM BR OVC007
     FM022100 09004KT P6SM BKN012=



000
FTUS44 KSJT 020500
TAFJCT
TAF
KJCT 020528Z 0206/0306 04007KT 2SM -DZ BR OVC006
     FM021700 02005KT 6SM BR OVC007
     FM022100 09004KT P6SM BKN012=



000
FTUS44 KSJT 020500
TAFABI
TAF
KABI 020528Z 0206/0306 02008KT 3SM -FZDZ BR OVC004
     FM021500 01007KT 3SM BR OVC004
     FM021800 01006KT 3SM BR OVC007
     FM022100 08005KT P6SM BKN012
     FM030300 14006KT 4SM BR OVC004=



000
FTUS44 KSJT 020500
TAFSJT
TAF
KSJT 020528Z 0206/0306 04008KT 2SM -DZ BR OVC004
     FM021800 08008KT 5SM BR OVC007=



000
FTUS44 KSJT 020500
TAFJCT
TAF
KJCT 020528Z 0206/0306 04007KT 2SM -DZ BR OVC006
     FM021700 02005KT 6SM BR OVC007
     FM022100 09004KT P6SM BKN012=



000
FTUS44 KSJT 020500
TAFABI
TAF
KABI 020528Z 0206/0306 02008KT 3SM -FZDZ BR OVC004
     FM021500 01007KT 3SM BR OVC004
     FM021800 01006KT 3SM BR OVC007
     FM022100 08005KT P6SM BKN012
     FM030300 14006KT 4SM BR OVC004=



000
FTUS44 KSJT 020500
TAFSJT
TAF
KSJT 020528Z 0206/0306 04008KT 2SM -DZ BR OVC004
     FM021800 08008KT 5SM BR OVC007=



000
FTUS44 KSJT 012300
TAFSJT
TAF
KSJT 012336Z 0200/0224 04008KT 4SM -DZ BR OVC004
     FM020200 04008KT 2SM -DZ BR OVC002
     FM021800 08008KT 5SM BR OVC007=



000
FTUS44 KSJT 012300
TAFABI
TAF
KABI 012336Z 0200/0224 02008KT 2SM -FZDZ BR OVC002
     FM020200 02008KT 1SM -FZDZ BR OVC002
     FM021500 36007KT 2SM BR OVC002
     FM021800 01006KT 5SM BR OVC007=



000
FTUS44 KSJT 012300
TAFJCT
TAF
KJCT 012336Z 0200/0224 04007KT 1SM -DZ BR OVC004
     FM021900 02005KT 6SM BR OVC007=



000
FTUS44 KSJT 012300
TAFJCT
TAF
KJCT 012336Z 0200/0224 04007KT 1SM -DZ BR OVC004
     FM021900 02005KT 6SM BR OVC007=



000
FTUS44 KSJT 012300
TAFABI
TAF
KABI 012336Z 0200/0224 02008KT 2SM -FZDZ BR OVC002
     FM020200 02008KT 1SM -FZDZ BR OVC002
     FM021500 36007KT 2SM BR OVC002
     FM021800 01006KT 5SM BR OVC007=



000
FTUS44 KSJT 012300
TAFSJT
TAF
KSJT 012336Z 0200/0224 04008KT 4SM -DZ BR OVC004
     FM020200 04008KT 2SM -DZ BR OVC002
     FM021800 08008KT 5SM BR OVC007=



000
FTUS44 KSJT 012200 AAB
TAFJCT
TAF AMD
KJCT 012235Z 0123/0218 04006KT 1SM -DZ BR OVC004=



000
FTUS44 KSJT 012200 AAA
TAFABI
TAF AMD
KABI 012233Z 0123/0218 01008KT 1SM -FZDZ BR OVC002=



000
FTUS44 KSJT 012200 AAA
TAFSJT
TAF AMD
KSJT 012208Z 0122/0218 VRB03KT 4SM -DZ BR OVC004
     FM020100 04008KT 3SM -DZ BR OVC003=



000
FTUS44 KSJT 012200 AAA
TAFSJT
TAF AMD
KSJT 012208Z 0122/0218 VRB03KT 4SM -DZ BR OVC004
     FM020100 04008KT 3SM -DZ BR OVC003=



000
FTUS44 KSJT 012100 AAA
TAFJCT
TAF AMD
KJCT 012115Z 0121/0218 07004KT 6SM BR OVC005
     FM020200 04007KT 4SM BR OVC004
     FM020500 04007KT 3SM -DZ BR OVC004=



000
FTUS44 KSJT 011700
TAFJCT
TAF
KJCT 011722Z 0118/0218 VRB03KT 3SM BR OVC004
     FM012100 07004KT 6SM BR OVC007
     FM020200 04007KT 4SM BR OVC005
     FM020500 04007KT 3SM -DZ BR OVC004=



000
FTUS44 KSJT 011700
TAFSJT
TAF
KSJT 011722Z 0118/0218 VRB03KT 3SM BR OVC003
     FM012100 07005KT 6SM BR OVC006
     FM020100 04008KT 4SM BR OVC006
     FM020500 04008KT 3SM BR OVC004
     FM020700 03007KT 2SM -FZDZ BR OVC004=



000
FTUS44 KSJT 011700
TAFABI
TAF
KABI 011722Z 0118/0218 03006KT 6SM BR OVC005
     FM020200 04007KT 4SM BR OVC004
     FM020500 04008KT 3SM -FZDZ BR OVC003=



000
FTUS44 KSJT 011700
TAFSJT
TAF
KSJT 011722Z 0118/0218 VRB03KT 3SM BR OVC003
     FM012100 07005KT 6SM BR OVC006
     FM020100 04008KT 4SM BR OVC006
     FM020500 04008KT 3SM BR OVC004
     FM020700 03007KT 2SM -FZDZ BR OVC004=



000
FTUS44 KSJT 011700
TAFJCT
TAF
KJCT 011722Z 0118/0218 VRB03KT 3SM BR OVC004
     FM012100 07004KT 6SM BR OVC007
     FM020200 04007KT 4SM BR OVC005
     FM020500 04007KT 3SM -DZ BR OVC004=



000
FTUS44 KSJT 011700
TAFABI
TAF
KABI 011722Z 0118/0218 03006KT 6SM BR OVC005
     FM020200 04007KT 4SM BR OVC004
     FM020500 04008KT 3SM -FZDZ BR OVC003=



000
FTUS44 KSJT 011100
TAFABI
TAF
KABI 011128Z 0112/0212 01007KT 2SM -FZDZ BR OVC003
      TEMPO 0112/0116 3SM BR OVC004
     FM011600 02004KT 4SM BR OVC004
     FM011800 03006KT 6SM BR OVC007
     FM020000 04007KT 4SM BR OVC004
     FM020500 04008KT 2SM -DZ BR OVC003
      TEMPO 0207/0211 1SM -FZDZ BR OVC002=



000
FTUS44 KSJT 011100
TAFJCT
TAF
KJCT 011128Z 0112/0212 08006KT 2SM -DZ BR OVC004
     FM011700 VRB03KT 4SM BR OVC006
     FM012000 07004KT 6SM BR OVC008
     FM020300 04007KT 3SM BR OVC005
     FM020600 04007KT 2SM -DZ BR OVC004=



000
FTUS44 KSJT 011100
TAFSJT
TAF
KSJT 011128Z 0112/0212 05004KT 3SM -FZDZ BR OVC003
      TEMPO 0114/0116 1SM BR OVC002
     FM011600 VRB03KT 4SM BR OVC008
     FM012000 07005KT P6SM OVC010
     FM020100 04008KT 4SM BR OVC008
     FM020500 04008KT 2SM BR OVC004=



000
FTUS44 KSJT 011100 AAA
TAFJCT
TAF AMD
KJCT 011112Z 0111/0206 08006KT 2SM -DZ BR OVC004
     FM011700 VRB03KT 4SM BR OVC006
     FM012000 07004KT 6SM BR OVC008
     FM020300 04007KT 3SM BR OVC005
      TEMPO 0203/0206 2SM -DZ BR OVC004=



000
FTUS44 KSJT 011100 AAA
TAFABI
TAF AMD
KABI 011108Z 0111/0206 01007KT 2SM -FZDZ BR OVC003
      TEMPO 0112/0116 3SM BR OVC004
     FM011600 02004KT 4SM BR OVC004
     FM011800 03006KT 6SM BR OVC007
     FM020000 04007KT 4SM BR OVC004
     FM020500 04008KT 2SM -DZ BR OVC003
      TEMPO 0205/0206 1SM -FZDZ BR OVC002=



000
FTUS44 KSJT 010900 AAA
TAFSJT
TAF AMD
KSJT 010915Z 0109/0206 05004KT 3SM -FZDZ BR OVC003
      TEMPO 0114/0116 1SM BR OVC002
     FM011600 VRB03KT 4SM BR OVC008
     FM012000 07005KT P6SM OVC010
     FM020100 04008KT 4SM BR OVC008
     FM020500 04008KT 2SM BR OVC004=



000
FTUS44 KSJT 010900 AAA
TAFSJT
TAF AMD
KSJT 010915Z 0109/0206 05004KT 3SM -FZDZ BR OVC003
      TEMPO 0114/0116 1SM BR OVC002
     FM011600 VRB03KT 4SM BR OVC008
     FM012000 07005KT P6SM OVC010
     FM020100 04008KT 4SM BR OVC008
     FM020500 04008KT 2SM BR OVC004=



000
FTUS44 KSJT 010500
TAFJCT
TAF
KJCT 010521Z 0106/0206 08006KT 2SM -DZ BR OVC004
     FM011700 VRB03KT 5SM BR OVC008=



000
FTUS44 KSJT 010500
TAFSJT
TAF
KSJT 010521Z 0106/0206 08008KT 3SM -FZDZ BR OVC003
     FM011500 VRB03KT 5SM BR OVC008=



000
FTUS44 KSJT 010500
TAFJCT
TAF
KJCT 010521Z 0106/0206 08006KT 2SM -DZ BR OVC004
     FM011700 VRB03KT 5SM BR OVC008=



000
FTUS44 KSJT 010500
TAFABI
TAF
KABI 010521Z 0106/0206 10005KT 2SM -FZDZ BR OVC004
     FM011700 VRB03KT 5SM BR OVC008=



000
FTUS44 KSJT 282300
TAFSJT
TAF
KSJT 282326Z 0100/0124 08008KT 2SM -FZDZ BR OVC003
     FM011700 VRB03KT 5SM BR OVC008=



000
FTUS44 KSJT 282300
TAFJCT
TAF
KJCT 282326Z 0100/0124 08006KT 2SM -DZ BR OVC004
     FM010300 09006KT 2SM -DZ OVC004
     FM012000 VRB03KT 5SM BR OVC008=



000
FTUS44 KSJT 282300
TAFABI
TAF
KABI 282326Z 0100/0124 10005KT 2SM -FZDZ BR OVC004
     FM011700 VRB03KT 5SM BR OVC008=



000
FTUS44 KSJT 282300
TAFSJT
TAF
KSJT 282326Z 0100/0124 08008KT 2SM -FZDZ BR OVC003
     FM011700 VRB03KT 5SM BR OVC008=



000
FTUS44 KSJT 282300
TAFABI
TAF
KABI 282326Z 0100/0124 10005KT 2SM -FZDZ BR OVC004
     FM011700 VRB03KT 5SM BR OVC008=



000
FTUS44 KSJT 282300
TAFJCT
TAF
KJCT 282326Z 0100/0124 08006KT 2SM -DZ BR OVC004
     FM010300 09006KT 2SM -DZ OVC004
     FM012000 VRB03KT 5SM BR OVC008=



000
FTUS44 KSJT 282100 AAB
TAFJCT
TAF AMD
KJCT 282119Z 2821/0118 VRB06KT 2SM BR OVC005
     FM010300 VRB06KT 3SM -FZDZ BR OVC008=



000
FTUS44 KSJT 282100 AAB
TAFSJT
TAF AMD
KSJT 282118Z 2821/0118 06007KT P6SM OVC004
     FM010300 VRB06KT 3SM -FZDZ BR OVC008=



000
FTUS44 KSJT 282100 AAC
TAFABI
TAF AMD
KABI 282117Z 2821/0118 VRB06KT P6SM OVC006
     FM010300 VRB06KT 3SM -FZDZ BR OVC008=



000
FTUS44 KSJT 282100 AAC
TAFABI
TAF AMD
KABI 282117Z 2821/0118 VRB06KT P6SM OVC006
     FM010300 VRB06KT 3SM -FZDZ BR OVC008=



000
FTUS44 KSJT 281900 AAB
TAFABI
TAF AMD
KABI 281927Z 2819/0118 VRB06KT P6SM OVC006
     FM282100 VRB06KT P6SM OVC012
     FM010300 VRB06KT 3SM -FZDZ BR OVC008=



000
FTUS44 KSJT 281900 AAB
TAFABI
TAF AMD
KABI 281927Z 2819/0118 VRB06KT P6SM OVC006
     FM282100 VRB06KT P6SM OVC012
     FM010300 VRB06KT 3SM -FZDZ BR OVC008=



000
FTUS44 KSJT 281900 AAA
TAFJCT
TAF AMD
KJCT 281906Z 2819/0118 VRB06KT 1 1/2SM BR OVC005
     FM282100 VRB06KT P6SM OVC011
     FM010300 VRB06KT 3SM -FZDZ BR OVC008=



000
FTUS44 KSJT 281900 AAA
TAFSJT
TAF AMD
KSJT 281905Z 2819/0118 06007KT 6SM BR OVC005
     FM282100 VRB06KT P6SM OVC012
     FM010300 VRB06KT 3SM -FZDZ BR OVC008=



000
FTUS44 KSJT 281900 AAA
TAFSJT
TAF AMD
KSJT 281905Z 2819/0118 06007KT 6SM BR OVC005
     FM282100 VRB06KT P6SM OVC012
     FM010300 VRB06KT 3SM -FZDZ BR OVC008=



000
FTUS44 KSJT 281900 AAA
TAFABI
TAF AMD
KABI 281902Z 2819/0118 VRB06KT P6SM OVC005
     FM282100 VRB06KT P6SM OVC012
     FM010300 VRB06KT 3SM -FZDZ BR OVC008=



000
FTUS44 KSJT 281900 AAA
TAFABI
TAF AMD
KABI 281902Z 2819/0118 VRB06KT P6SM OVC005
     FM282100 VRB06KT P6SM OVC012
     FM010300 VRB06KT 3SM -FZDZ BR OVC008=



000
FTUS44 KSJT 281700
TAFJCT
TAF
KJCT 281740Z 2818/0118 VRB06KT 2SM -FZDZ BR OVC005
     FM282100 VRB06KT P6SM OVC011
     FM010300 VRB06KT 3SM -FZDZ BR OVC008=



000
FTUS44 KSJT 281700
TAFABI
TAF
KABI 281740Z 2818/0118 VRB06KT 4SM -FZDZ BR OVC005
     FM282100 VRB06KT P6SM OVC012
     FM010300 VRB06KT 3SM -FZDZ BR OVC008=



000
FTUS44 KSJT 281700
TAFSJT
TAF
KSJT 281740Z 2818/0118 06008KT P6SM -FZDZ OVC006
     FM282100 VRB06KT P6SM OVC012
     FM010300 VRB06KT 3SM -FZDZ BR OVC008=



000
FTUS44 KSJT 281700 AAA
TAFSJT
TAF AMD
KSJT 281726Z 2817/0112 06008KT P6SM -FZDZ OVC006
     FM282100 14008KT P6SM OVC012
     FM010600 10010KT 4SM BR OVC008=



000
FTUS44 KSJT 281700 AAA
TAFABI
TAF AMD
KABI 281724Z 2817/0112 VRB06KT 4SM -FZDZ BR OVC005
     FM282100 VRB06KT P6SM OVC010
     FM010400 12010KT 3SM -FZDZ BR OVC008=



000
FTUS44 KSJT 281600 AAC
TAFABI
TAF AMD
KABI 281648Z 2817/0112 VRB06KT 2SM -FZDZ BR OVC004
     FM282100 14010KT P6SM OVC010
     FM010400 12010KT 3SM -FZDZ BR OVC008=



000
FTUS44 KSJT 281500 AAB
TAFABI
TAF AMD
KABI 281543Z 2816/0112 VRB06KT 1 1/2SM -FZDZ BR OVC004
     FM281900 14010KT P6SM OVC010
     FM010400 12010KT 3SM -FZDZ BR OVC008=



000
FTUS44 KSJT 281500 AAB
TAFABI
TAF AMD
KABI 281543Z 2816/0112 VRB06KT 1 1/2SM -FZDZ BR OVC004
     FM281900 14010KT P6SM OVC010
     FM010400 12010KT 3SM -FZDZ BR OVC008=



000
FTUS44 KSJT 281500 AAA
TAFJCT
TAF AMD
KJCT 281521Z 2815/0112 08007KT 1 1/2SM -FZDZ BR OVC005
     FM281800 15010KT 6SM BR OVC010
     FM010300 10008KT 3SM BR OVC008=



000
FTUS44 KSJT 281500 AAA
TAFSJT
TAF AMD
KSJT 281520Z 2815/0112 06008KT P6SM -FZDZ OVC006
     FM281700 14010KT P6SM OVC012
     FM010600 10010KT 4SM BR OVC008=



000
FTUS44 KSJT 281500 AAA
TAFABI
TAF AMD
KABI 281517Z 2815/0112 06008KT 2SM -FZDZ BR OVC004
     FM281900 14010KT P6SM OVC010
     FM010400 12010KT 3SM -FZDZ BR OVC008=



000
FTUS44 KSJT 281100
TAFABI
TAF
KABI 281129Z 2812/0112 06008KT 3SM -FZDZ BR OVC004
     FM281500 12010KT 5SM -FZDZ BR OVC006
     FM281900 14010KT P6SM OVC010
     FM010400 12010KT 3SM -FZDZ BR OVC008=



000
FTUS44 KSJT 281100
TAFJCT
TAF
KJCT 281129Z 2812/0112 08007KT 2SM -FZDZ BR OVC005
     FM281500 13006KT 3SM -DZ BR OVC005
     FM281800 15010KT 6SM BR OVC010
     FM010300 10008KT 3SM BR OVC008=



000
FTUS44 KSJT 281100
TAFSJT
TAF
KSJT 281129Z 2812/0112 06008KT 5SM -FZDZ BR OVC005
     FM281500 10010KT 4SM BR OVC007
     FM281700 14010KT P6SM OVC012
     FM010600 10010KT 4SM BR OVC008=



000
FTUS44 KSJT 280500
TAFABI
TAF
KABI 280520Z 2806/0106 06008KT 2SM -FZDZ BR OVC005
     FM280900 10010KT 2SM -FZDZ BR OVC002
     FM281500 12010KT 5SM -FZDZ BR OVC006
     FM281900 14010KT P6SM OVC012=



000
FTUS44 KSJT 280500
TAFSJT
TAF
KSJT 280520Z 2806/0106 06008KT 4SM -FZDZ BR OVC005
     FM281000 07007KT 2SM -FZDZ BR OVC002
     FM281500 10010KT 4SM BR OVC007
     FM281700 14010KT P6SM OVC012=



000
FTUS44 KSJT 280500
TAFJCT
TAF
KJCT 280520Z 2806/0106 08007KT 2SM -FZDZ BR OVC005
     FM280900 13009KT 1SM -FZDZ BR OVC002 WS020/18040KT
     FM281400 13006KT 3SM -DZ BR OVC005
     FM281700 15010KT 5SM BR OVC008=



000
FTUS44 KSJT 280500
TAFJCT
TAF
KJCT 280520Z 2806/0106 08007KT 2SM -FZDZ BR OVC005
     FM280900 13009KT 1SM -FZDZ BR OVC002 WS020/18040KT
     FM281400 13006KT 3SM -DZ BR OVC005
     FM281700 15010KT 5SM BR OVC008=



000
FTUS44 KSJT 280500
TAFSJT
TAF
KSJT 280520Z 2806/0106 06008KT 4SM -FZDZ BR OVC005
     FM281000 07007KT 2SM -FZDZ BR OVC002
     FM281500 10010KT 4SM BR OVC007
     FM281700 14010KT P6SM OVC012=



000
FTUS44 KSJT 280500
TAFABI
TAF
KABI 280520Z 2806/0106 06008KT 2SM -FZDZ BR OVC005
     FM280900 10010KT 2SM -FZDZ BR OVC002
     FM281500 12010KT 5SM -FZDZ BR OVC006
     FM281900 14010KT P6SM OVC012=



000
FTUS44 KSJT 272300
TAFSJT
TAF
KSJT 272331Z 2800/2824 06012KT 5SM BR OVC007
     FM280300 06008KT 4SM -FZDZ BR OVC006
     FM280800 07007KT 2SM -FZDZ BR OVC002=



000
FTUS44 KSJT 272300
TAFJCT
TAF
KJCT 272331Z 2800/2824 07009KT 2SM BR OVC008
     FM280300 08007KT 1SM -FZDZ BR OVC004
     FM280900 13009KT 1SM -FZDZ BR OVC002 WS020/18040KT
     FM281400 13006KT 3SM -DZ BR OVC005=



000
FTUS44 KSJT 272300
TAFABI
TAF
KABI 272331Z 2800/2824 07010KT 4SM BR OVC007
     FM280300 08008KT 2SM -FZDZ BR OVC007
     FM280900 10010KT 2SM -FZDZ BR OVC002=



000
FTUS44 KSJT 272200 AAA
TAFABI
TAF AMD
KABI 272210Z 2722/2818 07010KT 4SM BR OVC007
     FM280100 08008KT 2SM -FZDZ BR OVC007
     FM280900 10010KT 2SM -FZDZ BR OVC002=



000
FTUS44 KSJT 272200 AAA
TAFABI
TAF AMD
KABI 272210Z 2722/2818 07010KT 4SM BR OVC007
     FM280100 08008KT 2SM -FZDZ BR OVC007
     FM280900 10010KT 2SM -FZDZ BR OVC002=



000
FTUS44 KSJT 272200 AAA
TAFJCT
TAF AMD
KJCT 272207Z 2722/2818 07009KT 4SM BR OVC012
     FM280300 08007KT 4SM -DZ BR OVC007
     FM280900 13009KT 3SM -DZ BR OVC004 WS020/18040KT=



000
FTUS44 KSJT 272200 AAA
TAFJCT
TAF AMD
KJCT 272207Z 2722/2818 07009KT 4SM BR OVC012
     FM280300 08007KT 4SM -DZ BR OVC007
     FM280900 13009KT 3SM -DZ BR OVC004 WS020/18040KT=



    US Dept of Commerce
    National Oceanic and Atmospheric Administration
    National Weather Service
    1325 East West Highway
    Silver Spring, MD 20910
    Page Author: NWS Internet Services Team
Disclaimer
Information Quality
Credits
Glossary
Privacy Policy
Freedom of Information Act (FOIA)
About Us
Career Opportunities